Aérodrome :
LOGIN :

S'inscrire | Disclaimer

   EN    FR    IT 

 










Légende :    VFR   VFR Marginal   IFR   IFR Intensif   IFR Très Intensif
Visi : 
Plafond : 
>= 8 km
>= 3000ft
5 à 8 km
1000 à 3000 ft
1500m à 5 km
500 à 1000 ft
800 à 1500m
200 à 500 ft
< 800m
< 200 ft
Symboles :   Orages  Brouillard  Fortes neiges  Fortes précipitations  Vent > 20 kt
SIGMETs :   Divers  Orages  Givrage  Turbulence  Onde Orograph.  Cendres Volcan.






- Altitude de l'aérodrome : 656 ft
- Code IATA : CMN


GMMN - Casablanca Mohammed V

DERNIER METAR :
  • 011930Z 31005KT 9999 FEW020 FEW100 14/10 Q1016 NOSIG

METARs EXPIRÉS :
  • 011900Z 31006KT 9999 FEW020 FEW100 15/10 Q1016 NOSIG
  • 011830Z 31009KT 9999 FEW020 SCT100 16/10 Q1016 NOSIG
  • 011800Z 30009KT 9999 SCT020 SCT030 17/10 Q1016 NOSIG
  • 011730Z 31009KT 9999 SCT020 BKN030 17/11 Q1015 NOSIG
  • 011700Z 31009KT 9999 SCT020 BKN030 17/11 Q1015 NOSIG

TAF TAF GMMN
Valide du 01 à 18h jusqu'au 03 à 00h UTC


011700Z 0118/0224 32010KT 9999 SCT020 BKN030
BECMG 0120/0122 18008KT
BECMG 0211/0213 32012KT



MET'MAP, la Météo Aéronautique d'un coup d'oeil ! - Copyright ORBIFLY Décembre 2007 - Disclaimer

ORBIFLY MET'MAP TEAM :

Programmation & Développement : Alexandra Zaïnal
Sur une idée originale de : Baudouin d'Aumeries
Assistance à la programmation : Marc-Olivier Méhu
Soutien technique & logistique : Manuel Goepfert

Contact : metmap@orbifly.com




SOURCES & CREDITS :

   NOAA